createdAt,value
2019-03-01T00:00:39.876Z,4.00
2019-03-01T00:01:39.907Z,3.80
2019-03-01T00:02:39.938Z,4.00
2019-03-01T00:03:39.966Z,3.20
2019-03-01T00:04:39.996Z,3.90
2019-03-01T00:05:40.027Z,3.90
2019-03-01T00:06:40.058Z,3.60
2019-03-01T00:07:40.088Z,3.70
2019-03-01T00:08:40.118Z,3.80
2019-03-01T00:09:40.147Z,3.50
2019-03-01T00:10:40.177Z,3.90
2019-03-01T00:11:40.207Z,3.80
2019-03-01T00:12:40.238Z,3.40
2019-03-01T00:13:40.267Z,4.10
2019-03-01T00:14:40.298Z,4.10
2019-03-01T00:15:40.329Z,3.80
2019-03-01T00:16:40.357Z,4.40
2019-03-01T00:17:40.387Z,4.30
2019-03-01T00:18:40.418Z,4.00
2019-03-01T00:19:40.449Z,4.00
2019-03-01T00:20:40.479Z,3.70
2019-03-01T00:21:40.507Z,4.00
2019-03-01T00:22:40.541Z,4.10
2019-03-01T00:23:40.567Z,4.10
2019-03-01T00:24:40.598Z,3.60
2019-03-01T00:25:40.629Z,4.50
2019-03-01T00:26:40.659Z,4.00
2019-03-01T00:27:40.687Z,4.50
2019-03-01T00:28:40.718Z,4.80
2019-03-01T00:29:40.748Z,4.10
2019-03-01T00:30:40.781Z,4.50
2019-03-01T00:31:40.809Z,4.50
2019-03-01T00:32:40.839Z,3.50
2019-03-01T00:33:40.869Z,3.70
2019-03-01T00:34:40.898Z,3.80
2019-03-01T00:35:40.961Z,4.10
2019-03-01T00:36:40.971Z,4.50
2019-03-01T00:37:40.991Z,3.80
2019-03-01T00:38:41.019Z,4.00
2019-03-01T00:39:41.048Z,4.40
2019-03-01T00:40:41.078Z,3.80
2019-03-01T00:41:41.110Z,3.90
2019-03-01T00:42:41.140Z,3.70
2019-03-01T00:43:41.170Z,4.40
2019-03-01T00:44:41.198Z,3.90
2019-03-01T00:45:41.229Z,3.90
2019-03-01T00:46:41.264Z,4.10
2019-03-01T00:47:41.289Z,3.70
2019-03-01T00:48:41.319Z,3.40
2019-03-01T00:49:41.350Z,3.10
2019-03-01T00:50:41.389Z,3.50
2019-03-01T00:51:41.409Z,4.00
2019-03-01T00:52:41.438Z,3.70
2019-03-01T00:53:41.475Z,3.60
2019-03-01T00:54:41.499Z,4.30
2019-03-01T00:55:41.530Z,3.90
2019-03-01T00:56:41.559Z,3.10
2019-03-01T00:57:41.590Z,3.30
2019-03-01T00:58:41.625Z,3.00
2019-03-01T00:59:41.661Z,3.60
2019-03-01T01:00:41.680Z,3.90
2019-03-01T01:01:41.711Z,4.00
2019-03-01T01:02:41.741Z,4.20
2019-03-01T01:03:41.771Z,3.40
2019-03-01T01:04:41.806Z,3.80
2019-03-01T01:05:41.836Z,3.40
2019-03-01T01:06:41.865Z,3.30
2019-03-01T01:07:41.890Z,3.20
2019-03-01T01:08:41.921Z,2.90
2019-03-01T01:09:41.951Z,3.40
2019-03-01T01:10:41.983Z,3.00
2019-03-01T01:11:42.020Z,2.70
2019-03-01T01:12:42.042Z,3.30
2019-03-01T01:13:42.075Z,3.30
2019-03-01T01:14:42.107Z,3.60
2019-03-01T01:15:42.136Z,3.80
2019-03-01T01:16:42.170Z,4.30
2019-03-01T01:17:42.194Z,3.80
2019-03-01T01:18:42.222Z,4.00
2019-03-01T01:19:42.251Z,3.30
2019-03-01T01:20:42.281Z,3.00
2019-03-01T01:21:42.313Z,3.00
2019-03-01T01:22:42.345Z,3.20
2019-03-01T01:23:42.372Z,3.80
2019-03-01T01:24:42.402Z,4.00
2019-03-01T01:25:42.436Z,2.90
2019-03-01T01:26:42.464Z,3.90
2019-03-01T01:27:42.493Z,3.20
2019-03-01T01:28:42.523Z,3.20
2019-03-01T01:29:42.555Z,3.60
2019-03-01T01:30:42.584Z,3.50
2019-03-01T01:31:42.614Z,3.80
2019-03-01T01:32:42.645Z,4.00
2019-03-01T01:33:42.694Z,3.90
2019-03-01T01:34:42.706Z,3.60
2019-03-01T01:35:42.734Z,3.60
2019-03-01T01:36:42.765Z,3.60
2019-03-01T01:37:42.796Z,3.30
2019-03-01T01:38:42.827Z,3.30
2019-03-01T01:39:42.855Z,3.70
2019-03-01T01:40:42.886Z,3.00
2019-03-01T01:41:42.937Z,3.70
2019-03-01T01:42:42.948Z,3.50
2019-03-01T01:43:42.976Z,3.40
2019-03-01T01:44:43.009Z,3.40
2019-03-01T01:45:43.037Z,3.30
2019-03-01T01:46:43.067Z,3.50
2019-03-01T01:47:43.096Z,3.90
2019-03-01T01:48:43.127Z,3.00
2019-03-01T01:49:43.158Z,3.40
2019-03-01T01:50:43.187Z,3.30
2019-03-01T01:51:43.216Z,3.80
2019-03-01T01:52:43.247Z,3.50
2019-03-01T01:53:43.280Z,3.20
2019-03-01T01:54:43.307Z,3.50
2019-03-01T01:55:43.337Z,2.90
2019-03-01T01:56:43.367Z,3.30
2019-03-01T01:57:43.397Z,3.50
2019-03-01T01:58:43.428Z,4.20
2019-03-01T01:59:43.458Z,3.40
2019-03-01T02:00:43.491Z,3.40
2019-03-01T02:01:43.517Z,3.20
2019-03-01T02:02:43.547Z,4.00
2019-03-01T02:03:43.577Z,3.30
2019-03-01T02:04:43.607Z,3.40
2019-03-01T02:05:43.640Z,3.10
2019-03-01T02:06:43.669Z,2.90
2019-03-01T02:07:43.698Z,3.70
2019-03-01T02:08:43.728Z,3.50
2019-03-01T02:09:43.757Z,4.10
2019-03-01T02:10:43.851Z,3.40
2019-03-01T02:11:43.817Z,3.10
2019-03-01T02:12:43.848Z,3.00
2019-03-01T02:13:43.877Z,4.00
2019-03-01T02:14:43.907Z,3.60
2019-03-01T02:15:43.938Z,3.30
2019-03-01T02:16:43.970Z,3.40
2019-03-01T02:17:44.000Z,3.70
2019-03-01T02:18:44.027Z,3.90
2019-03-01T02:19:44.056Z,3.70
2019-03-01T02:20:44.088Z,4.20
2019-03-01T02:21:44.117Z,3.80
2019-03-01T02:22:44.147Z,3.40
2019-03-01T02:23:44.176Z,3.70
2019-03-01T02:24:44.209Z,4.20
2019-03-01T02:25:44.239Z,4.10
2019-03-01T02:26:44.268Z,4.60
2019-03-01T02:27:44.296Z,3.60
2019-03-01T02:28:44.354Z,4.10
2019-03-01T02:29:44.358Z,3.30
2019-03-01T02:30:44.389Z,3.70
2019-03-01T02:31:44.417Z,3.40
2019-03-01T02:32:44.447Z,3.50
2019-03-01T02:33:44.478Z,3.60
2019-03-01T02:34:44.583Z,4.00
2019-03-01T02:35:44.551Z,3.80
2019-03-01T02:36:44.568Z,4.40
2019-03-01T02:37:44.598Z,3.60
2019-03-01T02:38:44.642Z,4.10
2019-03-01T02:39:44.657Z,3.70
2019-03-01T02:40:44.687Z,3.60
2019-03-01T02:41:44.720Z,4.50
2019-03-01T02:42:44.750Z,4.30
2019-03-01T02:43:44.777Z,4.60
2019-03-01T02:44:44.808Z,4.30
2019-03-01T02:45:44.843Z,3.80
2019-03-01T02:46:44.871Z,4.20
2019-03-01T02:47:44.899Z,3.90
2019-03-01T02:48:44.926Z,4.10
2019-03-01T02:49:44.962Z,3.90
2019-03-01T02:50:44.987Z,3.30
2019-03-01T02:51:45.017Z,4.40
2019-03-01T02:52:45.046Z,3.70
2019-03-01T02:53:45.078Z,3.80
2019-03-01T02:54:45.108Z,3.50
2019-03-01T02:55:45.138Z,4.00
2019-03-01T02:56:45.169Z,4.10
2019-03-01T02:57:45.310Z,3.70
2019-03-01T02:58:45.232Z,3.60
2019-03-01T02:59:45.256Z,4.00
2019-03-01T03:00:45.287Z,4.30
2019-03-01T03:01:45.315Z,4.00
2019-03-01T03:02:45.357Z,4.00
2019-03-01T03:03:45.376Z,3.90
2019-03-01T03:04:45.404Z,3.30
2019-03-01T03:05:45.434Z,3.40
2019-03-01T03:06:45.497Z,3.20
2019-03-01T03:07:45.495Z,3.00
2019-03-01T03:08:51.338Z,3.30
2019-03-01T03:09:45.554Z,2.90
2019-03-01T03:10:45.585Z,2.90
2019-03-01T03:11:45.614Z,3.00
2019-03-01T03:12:45.645Z,2.20
2019-03-01T03:13:45.677Z,1.90
2019-03-01T03:14:45.703Z,1.90
2019-03-01T03:15:45.731Z,1.70
2019-03-01T03:16:45.772Z,1.90
2019-03-01T03:17:45.796Z,1.90
2019-03-01T03:18:45.828Z,2.40
2019-03-01T03:19:45.851Z,2.70
2019-03-01T03:20:45.883Z,3.00
2019-03-01T03:21:45.916Z,2.60
2019-03-01T03:22:45.943Z,2.60
2019-03-01T03:23:45.970Z,2.50
2019-03-01T03:24:46.004Z,2.50
2019-03-01T03:25:46.038Z,2.30
2019-03-01T03:26:48.448Z,3.00
2019-03-01T03:27:46.093Z,2.90
2019-03-01T03:28:46.118Z,2.80
2019-03-01T03:29:46.151Z,2.80
2019-03-01T03:30:46.180Z,2.30
2019-03-01T03:31:46.212Z,2.30
2019-03-01T03:32:46.244Z,2.20
2019-03-01T03:33:46.290Z,2.40
2019-03-01T03:34:46.299Z,2.40
2019-03-01T03:35:46.327Z,1.90
2019-03-01T03:36:46.359Z,2.10
2019-03-01T03:37:46.390Z,2.10
2019-03-01T03:38:46.418Z,1.80
2019-03-01T03:39:46.463Z,1.70
2019-03-01T03:40:46.476Z,1.50
2019-03-01T03:41:46.509Z,1.70
2019-03-01T03:42:46.539Z,2.50
2019-03-01T03:43:46.571Z,2.50
2019-03-01T03:44:46.597Z,2.60
2019-03-01T03:45:46.625Z,2.30
2019-03-01T03:46:46.654Z,2.50
2019-03-01T03:47:46.684Z,2.30
2019-03-01T03:48:46.715Z,2.10
2019-03-01T03:49:46.745Z,2.70
2019-03-01T03:50:46.773Z,2.30
2019-03-01T03:51:46.805Z,1.90
2019-03-01T03:52:46.834Z,1.70
2019-03-01T03:53:46.873Z,2.10
2019-03-01T03:54:46.894Z,2.00
2019-03-01T03:55:46.925Z,2.20
2019-03-01T03:56:46.952Z,2.10
2019-03-01T03:57:47.053Z,1.80
2019-03-01T03:58:47.011Z,2.00
2019-03-01T03:59:47.041Z,2.20
2019-03-01T04:00:47.071Z,1.90
2019-03-01T04:01:47.104Z,1.60
2019-03-01T04:02:47.133Z,1.90
2019-03-01T04:03:47.160Z,2.10
2019-03-01T04:04:47.195Z,1.90
2019-03-01T04:05:47.221Z,1.80
2019-03-01T04:06:47.257Z,1.80
2019-03-01T04:07:47.279Z,1.90
2019-03-01T04:08:47.560Z,1.40
2019-03-01T04:09:47.340Z,1.70
2019-03-01T04:10:47.376Z,1.60
2019-03-01T04:11:47.398Z,1.70
2019-03-01T04:12:47.427Z,1.60
2019-03-01T04:13:47.459Z,1.40
2019-03-01T04:14:47.487Z,1.70
2019-03-01T04:15:47.518Z,1.60
2019-03-01T04:16:47.551Z,2.10
2019-03-01T04:17:47.577Z,2.30
2019-03-01T04:18:47.608Z,1.40
2019-03-01T04:19:47.636Z,1.60
2019-03-01T04:20:47.665Z,1.70
2019-03-01T04:21:47.697Z,1.50
2019-03-01T04:22:47.729Z,1.90
2019-03-01T04:23:47.753Z,1.50
2019-03-01T04:24:47.783Z,1.70
2019-03-01T04:25:47.817Z,1.40
2019-03-01T04:26:47.844Z,1.40
2019-03-01T04:27:47.875Z,1.30
2019-03-01T04:28:47.903Z,1.40
2019-03-01T04:29:47.934Z,1.80
2019-03-01T04:30:47.963Z,1.60
2019-03-01T04:31:48.007Z,1.40
2019-03-01T04:32:48.070Z,1.70
2019-03-01T04:33:48.052Z,1.40
2019-03-01T04:34:48.084Z,1.60
2019-03-01T04:35:48.113Z,1.20
2019-03-01T04:36:48.140Z,1.30
2019-03-01T04:37:48.169Z,1.20
2019-03-01T04:38:48.199Z,1.20
2019-03-01T04:39:48.227Z,1.10
2019-03-01T04:40:48.258Z,1.00
2019-03-01T04:41:48.296Z,0.90
2019-03-01T04:42:48.317Z,1.00
2019-03-01T04:43:48.346Z,1.10
2019-03-01T04:44:48.426Z,0.90
2019-03-01T04:45:48.404Z,1.00
2019-03-01T04:46:48.437Z,1.20
2019-03-01T04:47:48.478Z,1.00
2019-03-01T04:48:48.493Z,0.80
2019-03-01T04:49:48.529Z,0.90
2019-03-01T04:50:48.566Z,1.00
2019-03-01T04:51:48.582Z,0.80
2019-03-01T04:52:48.612Z,1.00
2019-03-01T04:53:48.642Z,0.90
2019-03-01T04:54:48.673Z,1.00
2019-03-01T04:55:48.708Z,1.00
2019-03-01T04:56:48.730Z,1.00
2019-03-01T04:57:48.764Z,0.90
2019-03-01T04:58:48.789Z,0.80
2019-03-01T04:59:48.818Z,0.90
2019-03-01T05:00:48.850Z,0.80
2019-03-01T05:01:48.878Z,0.90
2019-03-01T05:02:48.908Z,1.00
2019-03-01T05:03:48.937Z,0.70
2019-03-01T05:04:48.974Z,0.80
2019-03-01T05:05:48.996Z,1.00
2019-03-01T05:06:49.027Z,0.80
2019-03-01T05:07:49.059Z,0.80
2019-03-01T05:08:49.089Z,0.90
2019-03-01T05:09:49.115Z,0.70
2019-03-01T05:10:49.144Z,0.90
2019-03-01T05:11:49.173Z,0.80
2019-03-01T05:12:49.202Z,0.80
2019-03-01T05:13:49.235Z,0.90
2019-03-01T05:14:49.262Z,0.70
2019-03-01T05:15:49.292Z,0.80
2019-03-01T05:16:49.333Z,0.80
2019-03-01T05:17:49.351Z,0.80
2019-03-01T05:18:49.381Z,1.00
2019-03-01T05:19:49.410Z,1.10
2019-03-01T05:20:49.440Z,0.80
2019-03-01T05:21:49.474Z,0.70
2019-03-01T05:22:49.505Z,0.80
2019-03-01T05:23:49.530Z,0.70
2019-03-01T05:24:49.558Z,1.00
2019-03-01T05:25:49.588Z,0.70
2019-03-01T05:26:49.618Z,1.00
2019-03-01T05:27:49.647Z,0.80
2019-03-01T05:28:49.678Z,0.90
2019-03-01T05:29:49.706Z,0.90
2019-03-01T05:30:49.737Z,1.40
2019-03-01T05:31:49.766Z,0.90
2019-03-01T05:32:49.795Z,0.80
2019-03-01T05:33:49.826Z,0.80
2019-03-01T05:34:49.855Z,0.80
2019-03-01T05:35:49.888Z,0.70
2019-03-01T05:36:49.915Z,0.70
2019-03-01T05:37:49.943Z,0.90
2019-03-01T05:38:49.972Z,0.90
2019-03-01T05:39:50.001Z,0.90
2019-03-01T05:40:50.041Z,1.00
2019-03-01T05:41:50.061Z,0.80
2019-03-01T05:42:50.091Z,1.40
2019-03-01T05:43:50.120Z,4.30
2019-03-01T05:44:50.150Z,4.70
2019-03-01T05:45:50.186Z,5.40
2019-03-01T05:46:50.209Z,2.40
2019-03-01T05:47:50.237Z,1.70
2019-03-01T05:48:50.271Z,1.30
2019-03-01T05:49:50.297Z,1.00
2019-03-01T05:50:50.333Z,1.40
2019-03-01T05:51:50.359Z,1.10
2019-03-01T05:52:50.385Z,1.40
2019-03-01T05:53:50.417Z,1.50
2019-03-01T05:54:50.455Z,1.20
2019-03-01T05:55:50.474Z,1.40
2019-03-01T05:56:50.508Z,1.00
2019-03-01T05:57:50.536Z,1.20
2019-03-01T05:58:50.564Z,0.90
2019-03-01T05:59:50.593Z,1.20
2019-03-01T06:00:50.624Z,1.20
2019-03-01T06:01:50.653Z,1.20
2019-03-01T06:02:50.686Z,1.20
2019-03-01T06:03:50.712Z,1.10
2019-03-01T06:04:50.741Z,1.40
2019-03-01T06:05:50.774Z,1.00
2019-03-01T06:06:50.802Z,1.10
2019-03-01T06:07:50.830Z,1.30
2019-03-01T06:08:50.860Z,2.00
2019-03-01T06:09:50.890Z,2.00
2019-03-01T06:10:50.920Z,1.70
2019-03-01T06:11:50.957Z,1.70
2019-03-01T06:12:50.979Z,1.60
2019-03-01T06:13:51.013Z,1.40
2019-03-01T06:14:51.043Z,1.60
2019-03-01T06:15:51.070Z,1.50
2019-03-01T06:16:51.096Z,1.80
2019-03-01T06:17:51.126Z,1.60
2019-03-01T06:18:51.156Z,2.10
2019-03-01T06:19:51.185Z,2.30
2019-03-01T06:20:51.215Z,2.20
2019-03-01T06:21:51.246Z,1.90
2019-03-01T06:22:51.274Z,2.00
2019-03-01T06:23:51.303Z,2.40
2019-03-01T06:24:51.332Z,2.50
2019-03-01T06:25:51.367Z,1.60
2019-03-01T06:26:51.391Z,1.90
2019-03-01T06:27:51.420Z,1.90
2019-03-01T06:28:51.451Z,2.10
2019-03-01T06:29:51.481Z,1.90
2019-03-01T06:30:52.199Z,2.30
2019-03-01T06:31:51.539Z,1.80
2019-03-01T06:32:51.572Z,2.10
2019-03-01T06:33:51.598Z,2.10
2019-03-01T06:34:51.629Z,1.50
2019-03-01T06:35:51.657Z,2.20
2019-03-01T06:36:51.688Z,2.00
2019-03-01T06:37:51.716Z,2.10
2019-03-01T06:38:51.747Z,1.80
2019-03-01T06:39:51.774Z,2.10
2019-03-01T06:40:51.804Z,2.00
2019-03-01T06:41:51.837Z,2.30
2019-03-01T06:42:51.865Z,2.40
2019-03-01T06:43:51.892Z,2.40
2019-03-01T06:44:51.924Z,2.50
2019-03-01T06:45:51.951Z,2.70
2019-03-01T06:46:51.982Z,2.90
2019-03-01T06:47:52.012Z,2.70
2019-03-01T06:48:52.040Z,2.40
2019-03-01T06:49:52.070Z,3.20
2019-03-01T06:50:52.098Z,2.50
2019-03-01T06:51:52.128Z,2.40
2019-03-01T06:52:52.158Z,2.80
2019-03-01T06:53:52.190Z,2.70
2019-03-01T06:54:52.215Z,3.30
2019-03-01T06:55:52.243Z,3.00
2019-03-01T06:56:52.276Z,2.60
2019-03-01T06:57:52.304Z,2.70
2019-03-01T06:58:52.333Z,3.20
2019-03-01T06:59:52.364Z,3.00
2019-03-01T07:00:52.391Z,2.30
2019-03-01T07:01:52.422Z,2.50
2019-03-01T07:02:52.451Z,2.40
2019-03-01T07:03:52.479Z,2.60
2019-03-01T07:04:52.511Z,2.40
2019-03-01T07:05:52.539Z,2.50
2019-03-01T07:06:52.572Z,2.30
2019-03-01T07:07:52.599Z,2.40
2019-03-01T07:08:52.627Z,2.60
2019-03-01T07:09:52.661Z,2.90
2019-03-01T07:10:52.685Z,3.20
2019-03-01T07:11:52.729Z,3.10
2019-03-01T07:12:52.765Z,2.80
2019-03-01T07:13:52.774Z,3.40
2019-03-01T07:14:52.803Z,3.50
2019-03-01T07:15:52.832Z,3.00
2019-03-01T07:16:52.861Z,2.70
2019-03-01T07:17:52.891Z,2.50
2019-03-01T07:18:52.927Z,3.00
2019-03-01T07:19:52.951Z,3.40
2019-03-01T07:20:52.981Z,3.10
2019-03-01T07:21:53.010Z,3.20
2019-03-01T07:22:53.039Z,3.50
2019-03-01T07:23:53.087Z,3.40
2019-03-01T07:24:53.098Z,2.90
2019-03-01T07:25:54.797Z,2.80
2019-03-01T07:26:53.159Z,2.70
2019-03-01T07:27:53.186Z,3.40
2019-03-01T07:28:53.216Z,1.90
2019-03-01T07:29:53.245Z,2.00
2019-03-01T07:30:53.276Z,2.20
2019-03-01T07:31:53.304Z,3.30
2019-03-01T07:32:53.334Z,4.90
2019-03-01T07:33:53.367Z,6.10
2019-03-01T07:34:53.395Z,4.20
2019-03-01T07:35:53.423Z,3.80
2019-03-01T07:36:53.451Z,2.20
2019-03-01T07:37:53.484Z,3.20
2019-03-01T07:38:53.512Z,3.70
2019-03-01T07:39:53.541Z,3.90
2019-03-01T07:40:53.571Z,3.20
2019-03-01T07:41:53.601Z,2.80
2019-03-01T07:42:53.633Z,2.70
2019-03-01T07:43:53.659Z,2.70
2019-03-01T07:44:53.689Z,3.00
2019-03-01T07:45:53.718Z,3.00
2019-03-01T07:46:54.372Z,3.30
2019-03-01T07:47:53.777Z,2.70
2019-03-01T07:48:53.807Z,2.80
2019-03-01T07:49:53.836Z,3.20
2019-03-01T07:50:55.269Z,2.70
2019-03-01T07:51:53.900Z,2.90
2019-03-01T07:52:53.925Z,2.70
2019-03-01T07:53:53.956Z,3.10
2019-03-01T07:54:53.985Z,2.90
2019-03-01T07:55:54.015Z,3.10
2019-03-01T07:56:54.044Z,3.20
2019-03-01T07:57:54.073Z,2.90
2019-03-01T07:58:54.121Z,3.30
2019-03-01T07:59:54.138Z,3.50
2019-03-01T08:00:54.741Z,2.50
2019-03-01T08:01:55.869Z,2.70
2019-03-01T08:02:54.226Z,2.00
2019-03-01T08:03:54.252Z,2.40
2019-03-01T08:04:54.281Z,2.60
2019-03-01T08:05:54.311Z,2.40
2019-03-01T08:06:54.342Z,2.50
2019-03-01T08:07:56.277Z,2.50
2019-03-01T08:08:54.399Z,2.80
2019-03-01T08:09:54.432Z,2.70
2019-03-01T08:10:56.393Z,2.30
2019-03-01T08:11:54.491Z,3.30
2019-03-01T08:12:54.522Z,2.80
2019-03-01T08:13:54.551Z,2.40
2019-03-01T08:14:54.603Z,2.70
2019-03-01T08:15:54.607Z,3.00
2019-03-01T08:16:56.082Z,2.50
2019-03-01T08:17:54.666Z,2.30
2019-03-01T08:18:54.696Z,2.40
2019-03-01T08:19:58.243Z,2.80
2019-03-01T08:20:54.756Z,2.80
2019-03-01T08:21:54.796Z,2.90
2019-03-01T08:22:56.875Z,2.40
2019-03-01T08:23:54.851Z,3.10
2019-03-01T08:24:54.873Z,3.00
2019-03-01T08:25:55.663Z,2.80
2019-03-01T08:26:56.965Z,2.70
2019-03-01T08:27:54.970Z,2.70
2019-03-01T08:28:58.353Z,3.50
2019-03-01T08:29:55.022Z,3.10
2019-03-01T08:30:55.054Z,3.10
2019-03-01T08:31:55.748Z,3.00
2019-03-01T08:32:55.110Z,2.60
2019-03-01T08:33:55.140Z,3.10
2019-03-01T08:34:55.170Z,2.40
2019-03-01T08:35:55.199Z,2.50
2019-03-01T08:36:55.228Z,2.90
2019-03-01T08:37:55.257Z,2.20
2019-03-01T08:38:55.288Z,2.30
2019-03-01T08:39:55.317Z,2.20
2019-03-01T08:40:55.346Z,2.30
2019-03-01T08:42:00.168Z,1.50
2019-03-01T08:42:55.416Z,1.80
2019-03-01T08:43:55.435Z,1.50
2019-03-01T08:44:58.366Z,1.20
2019-03-01T08:45:55.493Z,1.40
2019-03-01T08:46:55.523Z,2.50
2019-03-01T08:47:58.901Z,1.60
2019-03-01T08:48:55.584Z,1.80
2019-03-01T08:49:55.626Z,1.50
2019-03-01T08:50:55.646Z,1.40
2019-03-01T08:51:58.560Z,2.10
2019-03-01T08:52:55.702Z,1.70
2019-03-01T08:53:55.731Z,1.80
2019-03-01T08:55:00.382Z,2.60
2019-03-01T08:55:55.798Z,2.20
2019-03-01T08:56:55.820Z,2.00
2019-03-01T08:57:59.746Z,1.70
2019-03-01T08:58:55.885Z,1.80
2019-03-01T08:59:55.907Z,1.70
2019-03-01T09:00:59.553Z,1.50
2019-03-01T09:01:55.967Z,1.60
2019-03-01T09:02:55.998Z,1.70
2019-03-01T09:03:56.027Z,1.60
2019-03-01T09:04:56.060Z,1.50
2019-03-01T09:05:56.087Z,1.60
2019-03-01T09:06:56.117Z,1.80
2019-03-01T09:07:56.145Z,1.50
2019-03-01T09:08:56.177Z,1.70
2019-03-01T09:09:57.308Z,1.40
2019-03-01T09:10:56.237Z,1.90
2019-03-01T09:11:56.265Z,2.30
2019-03-01T09:12:56.292Z,1.80
2019-03-01T09:13:56.323Z,1.30
2019-03-01T09:14:56.353Z,1.70
2019-03-01T09:15:56.383Z,1.70
2019-03-01T09:16:56.412Z,1.70
2019-03-01T09:17:56.444Z,1.80
2019-03-01T09:18:56.486Z,2.10
2019-03-01T09:19:57.146Z,1.80
2019-03-01T09:21:04.424Z,1.60
2019-03-01T09:21:56.561Z,1.70
2019-03-01T09:22:56.591Z,1.90
2019-03-01T09:23:56.618Z,1.90
2019-03-01T09:24:56.647Z,1.80
2019-03-01T09:25:56.678Z,1.80
2019-03-01T09:26:56.707Z,2.10
2019-03-01T09:27:57.642Z,1.50
2019-03-01T09:28:56.769Z,1.70
2019-03-01T09:29:59.056Z,1.80
2019-03-01T09:30:56.825Z,1.50
2019-03-01T09:31:57.864Z,1.90
2019-03-01T09:32:56.883Z,2.70
2019-03-01T09:33:57.415Z,2.50
2019-03-01T09:34:56.943Z,2.30
2019-03-01T09:35:56.972Z,1.90
2019-03-01T09:36:57.003Z,2.20
2019-03-01T09:37:57.032Z,2.10
2019-03-01T09:38:57.061Z,2.30
2019-03-01T09:40:05.182Z,1.80
2019-03-01T09:40:57.594Z,2.00
2019-03-01T09:42:03.244Z,2.20
2019-03-01T09:42:57.197Z,2.00
2019-03-01T09:43:59.667Z,1.80
2019-03-01T09:44:57.253Z,2.00
2019-03-01T09:45:57.268Z,2.50
2019-03-01T09:46:58.455Z,2.30
2019-03-01T09:47:57.326Z,2.60
2019-03-01T09:48:57.354Z,3.00
2019-03-01T09:49:59.984Z,2.90
2019-03-01T09:50:57.434Z,3.00
2019-03-01T09:51:57.463Z,3.20
2019-03-01T09:52:58.887Z,2.00
2019-03-01T09:53:57.513Z,2.30
2019-03-01T09:54:57.533Z,1.90
2019-03-01T09:55:57.562Z,2.40
2019-03-01T09:56:57.595Z,2.10
2019-03-01T09:57:57.621Z,1.80
2019-03-01T09:58:57.651Z,1.80
2019-03-01T09:59:57.781Z,1.80
2019-03-01T10:00:57.710Z,1.90
2019-03-01T10:01:57.739Z,2.10
2019-03-01T10:02:58.613Z,2.20
2019-03-01T10:03:57.799Z,2.20
2019-03-01T10:04:57.839Z,2.30
2019-03-01T10:05:57.858Z,2.00
2019-03-01T10:06:57.887Z,2.00
2019-03-01T10:07:57.916Z,1.90
2019-03-01T10:08:57.946Z,1.90
2019-03-01T10:09:58.263Z,2.00
2019-03-01T10:10:58.007Z,2.00
2019-03-01T10:11:58.093Z,2.20
2019-03-01T10:12:58.068Z,1.90
2019-03-01T10:13:58.094Z,1.40
2019-03-01T10:15:58.153Z,2.20
2019-03-01T10:16:58.183Z,2.40
2019-03-01T10:17:58.214Z,1.90
2019-03-01T10:18:58.243Z,1.80
2019-03-01T10:19:58.272Z,1.70
2019-03-01T10:20:58.302Z,2.10
2019-03-01T10:21:58.333Z,1.70
2019-03-01T10:22:58.361Z,1.80
2019-03-01T10:23:58.391Z,1.40
2019-03-01T10:24:58.422Z,1.60
2019-03-01T10:25:58.452Z,1.60
2019-03-01T10:26:58.481Z,1.90
2019-03-01T10:27:58.510Z,1.70
2019-03-01T10:28:58.540Z,1.50
2019-03-01T10:29:58.571Z,1.40
2019-03-01T10:30:58.600Z,1.30
2019-03-01T10:31:58.630Z,1.40
2019-03-01T10:32:58.661Z,1.60
2019-03-01T10:33:58.690Z,1.80
2019-03-01T10:34:58.720Z,1.40
2019-03-01T10:35:58.750Z,1.30
2019-03-01T10:36:58.779Z,1.20
2019-03-01T10:37:58.810Z,1.50
2019-03-01T10:38:58.840Z,1.80
2019-03-01T10:39:58.870Z,2.00
2019-03-01T10:40:58.951Z,1.60
2019-03-01T10:41:58.930Z,1.30
2019-03-01T10:42:58.960Z,1.70
2019-03-01T10:43:58.988Z,1.40
2019-03-01T10:44:59.064Z,1.90
2019-03-01T10:45:59.049Z,1.60
2019-03-01T10:46:59.660Z,1.70
2019-03-01T10:47:59.109Z,1.60
2019-03-01T10:48:59.140Z,1.30
2019-03-01T10:49:59.171Z,1.50
2019-03-01T10:50:59.200Z,1.40
2019-03-01T10:51:59.229Z,1.60
2019-03-01T10:52:59.260Z,1.50
2019-03-01T10:53:59.289Z,1.60
2019-03-01T10:54:59.319Z,2.00
2019-03-01T10:57:02.002Z,1.20
2019-03-01T10:58:00.524Z,1.50
2019-03-01T10:58:59.466Z,1.50
2019-03-01T10:59:59.471Z,1.90
2019-03-01T11:00:59.501Z,1.40
2019-03-01T11:01:59.532Z,1.30
2019-03-01T11:02:59.563Z,1.20
2019-03-01T11:03:59.593Z,1.30
2019-03-01T11:04:59.624Z,0.90
2019-03-01T11:05:59.654Z,1.20
2019-03-01T11:06:59.686Z,1.40
2019-03-01T11:07:59.716Z,1.20
2019-03-01T11:08:59.751Z,1.10
2019-03-01T11:09:59.781Z,1.00
2019-03-01T11:10:59.810Z,1.10
2019-03-01T11:11:59.840Z,1.00
2019-03-01T11:12:59.873Z,0.90
2019-03-01T11:13:59.903Z,1.20
2019-03-01T11:14:59.933Z,1.50
2019-03-01T11:15:59.967Z,1.00
2019-03-01T11:16:59.996Z,1.30
2019-03-01T11:18:00.027Z,1.30
2019-03-01T11:19:00.060Z,1.10
2019-03-01T11:20:00.104Z,1.20
2019-03-01T11:21:00.124Z,1.20
2019-03-01T11:22:00.151Z,1.10
2019-03-01T11:23:00.186Z,1.40
2019-03-01T11:24:00.215Z,1.10
2019-03-01T11:25:00.326Z,1.10
2019-03-01T11:26:00.275Z,1.40
2019-03-01T11:27:00.307Z,1.40
2019-03-01T11:28:00.336Z,1.20
2019-03-01T11:29:00.368Z,1.10
2019-03-01T11:30:00.399Z,1.00
2019-03-01T11:31:00.431Z,1.20
2019-03-01T11:32:00.460Z,1.40
2019-03-01T11:33:00.493Z,1.20
2019-03-01T11:34:00.525Z,1.30
2019-03-01T11:35:00.556Z,2.00
2019-03-01T11:36:00.584Z,2.00
2019-03-01T11:37:00.615Z,1.90
2019-03-01T11:38:00.647Z,2.00
2019-03-01T11:39:00.678Z,1.20
2019-03-01T11:40:00.727Z,0.90
2019-03-01T11:41:00.738Z,1.10
2019-03-01T11:42:00.770Z,1.40
2019-03-01T11:43:00.802Z,1.10
2019-03-01T11:44:00.831Z,1.10
2019-03-01T11:45:00.863Z,1.20
2019-03-01T11:46:00.902Z,0.90
2019-03-01T11:47:00.928Z,1.10
2019-03-01T11:48:00.956Z,0.90
2019-03-01T11:49:00.984Z,1.00
2019-03-01T11:50:01.016Z,0.90
2019-03-01T11:51:01.046Z,1.10
2019-03-01T11:52:01.078Z,1.20
2019-03-01T11:53:01.110Z,0.90
2019-03-01T11:54:01.137Z,0.90
2019-03-01T11:55:01.168Z,1.10
2019-03-01T11:56:01.198Z,1.30
2019-03-01T11:57:01.229Z,1.40
2019-03-01T11:58:01.260Z,1.00
2019-03-01T11:59:01.291Z,1.10
2019-03-01T12:00:01.322Z,1.10
2019-03-01T12:01:01.352Z,1.20
2019-03-01T12:02:01.381Z,1.00
2019-03-01T12:03:01.412Z,1.20
2019-03-01T12:04:01.445Z,1.20
2019-03-01T12:05:01.474Z,1.20
2019-03-01T12:06:01.503Z,1.20
2019-03-01T12:07:01.532Z,1.10
2019-03-01T12:08:01.565Z,1.30
2019-03-01T12:09:01.597Z,1.00
2019-03-01T12:10:01.623Z,1.00
2019-03-01T12:11:01.653Z,1.00
2019-03-01T12:12:01.684Z,1.00
2019-03-01T12:13:01.716Z,1.00
2019-03-01T12:14:01.744Z,1.10
2019-03-01T12:15:01.775Z,1.00
2019-03-01T12:16:01.806Z,1.20
2019-03-01T12:17:01.835Z,1.10
2019-03-01T12:18:01.865Z,1.20
2019-03-01T12:19:01.898Z,1.30
2019-03-01T12:20:01.926Z,1.20
2019-03-01T12:21:01.955Z,1.20
2019-03-01T12:22:01.986Z,0.90
2019-03-01T12:23:02.017Z,1.00
2019-03-01T12:24:02.047Z,1.30
2019-03-01T12:25:02.077Z,1.00
2019-03-01T12:26:02.108Z,1.10
2019-03-01T12:27:02.137Z,1.10
2019-03-01T12:28:02.166Z,1.10
2019-03-01T12:29:02.196Z,1.20
2019-03-01T12:30:02.229Z,1.40
2019-03-01T12:31:02.260Z,1.20
2019-03-01T12:32:02.286Z,1.20
2019-03-01T12:33:02.318Z,1.00
2019-03-01T12:34:02.348Z,1.60
2019-03-01T12:35:02.379Z,1.40
2019-03-01T12:36:02.407Z,1.10
2019-03-01T12:37:02.437Z,1.20
2019-03-01T12:38:02.467Z,1.00
2019-03-01T12:39:02.501Z,1.40
2019-03-01T12:40:02.529Z,1.20
2019-03-01T12:41:02.559Z,1.30
2019-03-01T12:42:02.588Z,1.30
2019-03-01T12:43:02.619Z,1.40
2019-03-01T12:44:02.647Z,1.80
2019-03-01T12:45:02.681Z,1.70
2019-03-01T12:46:02.710Z,1.60
2019-03-01T12:47:02.740Z,1.60
2019-03-01T12:48:02.769Z,2.00
2019-03-01T12:49:02.798Z,1.80
2019-03-01T12:50:02.833Z,1.80
2019-03-01T12:51:02.859Z,2.10
2019-03-01T12:52:02.890Z,2.00
2019-03-01T12:53:02.945Z,2.10
2019-03-01T12:54:02.979Z,1.70
2019-03-01T12:55:03.006Z,1.90
2019-03-01T12:56:03.032Z,1.60
2019-03-01T12:57:03.040Z,1.60
2019-03-01T12:58:03.070Z,2.00
2019-03-01T12:59:03.124Z,1.90
2019-03-01T13:00:03.458Z,1.70
2019-03-01T13:01:03.157Z,1.60
2019-03-01T13:02:03.190Z,1.60
2019-03-01T13:04:03.272Z,1.90
2019-03-01T13:05:03.301Z,1.40
2019-03-01T13:06:03.896Z,1.80
2019-03-01T13:07:03.362Z,1.60
2019-03-01T13:08:03.393Z,1.60
2019-03-01T13:09:03.400Z,1.40
2019-03-01T13:10:06.788Z,1.70
2019-03-01T13:11:03.484Z,1.40
2019-03-01T13:12:03.512Z,1.50
2019-03-01T13:13:07.962Z,1.90
2019-03-01T13:14:03.879Z,1.60
2019-03-01T13:15:03.581Z,1.70
2019-03-01T13:16:03.634Z,1.80
2019-03-01T13:20:04.166Z,2.00
2019-03-01T13:23:04.973Z,2.20
2019-03-01T13:27:04.775Z,1.80
2019-03-01T13:29:04.023Z,2.20
2019-03-01T13:30:04.263Z,1.70
2019-03-01T13:32:04.122Z,1.70